sensor_id;sensor_type;location;lat;lon;timestamp;temperature;humidity
65692;DHT22;52411;52.716;6.696;2023-06-22T00:00:44;19.10;99.90
65692;DHT22;52411;52.716;6.696;2023-06-22T00:03:10;19.00;99.90
65692;DHT22;52411;52.716;6.696;2023-06-22T00:05:35;19.00;99.90
65692;DHT22;52411;52.716;6.696;2023-06-22T00:08:04;18.90;99.90
65692;DHT22;52411;52.716;6.696;2023-06-22T00:10:30;18.80;99.90
65692;DHT22;52411;52.716;6.696;2023-06-22T00:12:56;18.80;99.90
65692;DHT22;52411;52.716;6.696;2023-06-22T00:15:21;18.80;99.90
65692;DHT22;52411;52.716;6.696;2023-06-22T00:17:47;18.70;99.90
65692;DHT22;52411;52.716;6.696;2023-06-22T00:20:13;18.60;99.90
65692;DHT22;52411;52.716;6.696;2023-06-22T00:22:40;18.60;99.90
65692;DHT22;52411;52.716;6.696;2023-06-22T00:25:06;18.60;99.90
65692;DHT22;52411;52.716;6.696;2023-06-22T00:27:32;18.50;99.90
65692;DHT22;52411;52.716;6.696;2023-06-22T00:29:58;18.40;99.90
65692;DHT22;52411;52.716;6.696;2023-06-22T00:32:23;18.30;99.90
65692;DHT22;52411;52.716;6.696;2023-06-22T00:34:49;18.30;99.90
65692;DHT22;52411;52.716;6.696;2023-06-22T00:37:16;18.30;99.90
65692;DHT22;52411;52.716;6.696;2023-06-22T00:39:43;18.30;99.90
65692;DHT22;52411;52.716;6.696;2023-06-22T00:42:08;18.20;99.90
65692;DHT22;52411;52.716;6.696;2023-06-22T00:44:35;18.20;99.90
65692;DHT22;52411;52.716;6.696;2023-06-22T00:47:02;18.20;99.90
65692;DHT22;52411;52.716;6.696;2023-06-22T00:49:28;18.20;99.90
65692;DHT22;52411;52.716;6.696;2023-06-22T00:51:55;18.20;99.90
65692;DHT22;52411;52.716;6.696;2023-06-22T00:54:21;18.10;99.90
65692;DHT22;52411;52.716;6.696;2023-06-22T00:56:59;18.10;99.90
65692;DHT22;52411;52.716;6.696;2023-06-22T00:59:26;18.00;99.90
65692;DHT22;52411;52.716;6.696;2023-06-22T01:01:51;18.00;99.90
65692;DHT22;52411;52.716;6.696;2023-06-22T01:04:17;17.90;99.90
65692;DHT22;52411;52.716;6.696;2023-06-22T01:07:00;17.90;99.90
65692;DHT22;52411;52.716;6.696;2023-06-22T01:09:33;17.90;99.90
65692;DHT22;52411;52.716;6.696;2023-06-22T01:12:02;17.70;99.90
65692;DHT22;52411;52.716;6.696;2023-06-22T01:14:40;17.70;99.90
65692;DHT22;52411;52.716;6.696;2023-06-22T01:17:08;17.70;99.90
65692;DHT22;52411;52.716;6.696;2023-06-22T01:19:43;17.50;99.90
65692;DHT22;52411;52.716;6.696;2023-06-22T01:22:10;17.50;99.90
65692;DHT22;52411;52.716;6.696;2023-06-22T01:29:56;17.40;99.90
65692;DHT22;52411;52.716;6.696;2023-06-22T01:32:31;17.30;99.90
65692;DHT22;52411;52.716;6.696;2023-06-22T01:35:00;17.30;99.90
65692;DHT22;52411;52.716;6.696;2023-06-22T01:37:27;17.30;99.90
65692;DHT22;52411;52.716;6.696;2023-06-22T01:39:55;17.20;99.90
65692;DHT22;52411;52.716;6.696;2023-06-22T01:42:23;17.20;99.90
65692;DHT22;52411;52.716;6.696;2023-06-22T01:44:49;17.20;99.90
65692;DHT22;52411;52.716;6.696;2023-06-22T01:47:15;17.20;99.90
65692;DHT22;52411;52.716;6.696;2023-06-22T01:49:42;17.30;99.90
65692;DHT22;52411;52.716;6.696;2023-06-22T01:52:08;17.30;99.90
65692;DHT22;52411;52.716;6.696;2023-06-22T01:54:33;17.30;99.90
65692;DHT22;52411;52.716;6.696;2023-06-22T01:56:59;17.40;99.90
65692;DHT22;52411;52.716;6.696;2023-06-22T01:59:51;17.30;99.90
65692;DHT22;52411;52.716;6.696;2023-06-22T02:02:19;17.40;99.90
65692;DHT22;52411;52.716;6.696;2023-06-22T02:04:55;17.30;99.90
65692;DHT22;52411;52.716;6.696;2023-06-22T02:07:23;17.30;99.90
65692;DHT22;52411;52.716;6.696;2023-06-22T02:09:51;17.20;99.90
65692;DHT22;52411;52.716;6.696;2023-06-22T02:12:21;17.20;99.90
65692;DHT22;52411;52.716;6.696;2023-06-22T02:14:47;17.20;99.90
65692;DHT22;52411;52.716;6.696;2023-06-22T02:17:14;17.20;99.90
65692;DHT22;52411;52.716;6.696;2023-06-22T02:19:43;17.10;99.90
65692;DHT22;52411;52.716;6.696;2023-06-22T02:22:08;17.10;99.90
65692;DHT22;52411;52.716;6.696;2023-06-22T02:24:34;17.10;99.90
65692;DHT22;52411;52.716;6.696;2023-06-22T02:27:01;17.10;99.90
65692;DHT22;52411;52.716;6.696;2023-06-22T02:29:27;17.10;99.90
65692;DHT22;52411;52.716;6.696;2023-06-22T02:31:54;17.00;99.90
65692;DHT22;52411;52.716;6.696;2023-06-22T02:34:20;17.10;99.90
65692;DHT22;52411;52.716;6.696;2023-06-22T02:36:47;17.10;99.90
65692;DHT22;52411;52.716;6.696;2023-06-22T02:39:20;17.10;99.90
65692;DHT22;52411;52.716;6.696;2023-06-22T02:41:48;17.10;99.90
65692;DHT22;52411;52.716;6.696;2023-06-22T02:44:13;17.00;99.90
65692;DHT22;52411;52.716;6.696;2023-06-22T02:46:39;17.00;99.90
65692;DHT22;52411;52.716;6.696;2023-06-22T02:49:05;16.90;99.90
65692;DHT22;52411;52.716;6.696;2023-06-22T02:51:33;16.80;99.90
65692;DHT22;52411;52.716;6.696;2023-06-22T02:54:02;16.70;99.90
65692;DHT22;52411;52.716;6.696;2023-06-22T02:56:28;16.70;99.90
65692;DHT22;52411;52.716;6.696;2023-06-22T02:58:56;16.60;99.90
65692;DHT22;52411;52.716;6.696;2023-06-22T03:01:29;16.60;99.90
65692;DHT22;52411;52.716;6.696;2023-06-22T03:03:56;16.70;99.90
65692;DHT22;52411;52.716;6.696;2023-06-22T03:06:22;16.70;99.90
65692;DHT22;52411;52.716;6.696;2023-06-22T03:08:49;16.70;99.90
65692;DHT22;52411;52.716;6.696;2023-06-22T03:11:15;16.70;99.90
65692;DHT22;52411;52.716;6.696;2023-06-22T03:13:40;16.60;99.90
65692;DHT22;52411;52.716;6.696;2023-06-22T03:16:06;16.70;99.90
65692;DHT22;52411;52.716;6.696;2023-06-22T03:18:32;16.60;99.90
65692;DHT22;52411;52.716;6.696;2023-06-22T03:20:57;16.60;99.90
65692;DHT22;52411;52.716;6.696;2023-06-22T03:23:23;16.60;99.90
65692;DHT22;52411;52.716;6.696;2023-06-22T03:25:49;16.50;99.90
65692;DHT22;52411;52.716;6.696;2023-06-22T03:28:15;16.40;99.90
65692;DHT22;52411;52.716;6.696;2023-06-22T03:30:40;16.40;99.90
65692;DHT22;52411;52.716;6.696;2023-06-22T03:33:06;16.40;99.90
65692;DHT22;52411;52.716;6.696;2023-06-22T03:35:31;16.30;99.90
65692;DHT22;52411;52.716;6.696;2023-06-22T03:37:57;16.30;99.90
65692;DHT22;52411;52.716;6.696;2023-06-22T03:40:23;16.40;99.90
65692;DHT22;52411;52.716;6.696;2023-06-22T03:42:48;16.40;99.90
65692;DHT22;52411;52.716;6.696;2023-06-22T03:45:14;16.40;99.90
65692;DHT22;52411;52.716;6.696;2023-06-22T03:47:40;16.30;99.90
65692;DHT22;52411;52.716;6.696;2023-06-22T03:50:05;16.10;99.90
65692;DHT22;52411;52.716;6.696;2023-06-22T03:52:31;16.00;99.90
65692;DHT22;52411;52.716;6.696;2023-06-22T03:54:57;16.00;99.90
65692;DHT22;52411;52.716;6.696;2023-06-22T03:57:23;15.90;99.90
65692;DHT22;52411;52.716;6.696;2023-06-22T03:59:49;15.90;99.90
65692;DHT22;52411;52.716;6.696;2023-06-22T04:02:14;15.90;99.90
65692;DHT22;52411;52.716;6.696;2023-06-22T04:04:40;16.00;99.90
65692;DHT22;52411;52.716;6.696;2023-06-22T04:07:06;16.10;99.90
65692;DHT22;52411;52.716;6.696;2023-06-22T04:09:31;16.10;99.90
65692;DHT22;52411;52.716;6.696;2023-06-22T04:11:57;16.20;99.90
65692;DHT22;52411;52.716;6.696;2023-06-22T04:14:23;16.30;99.90
65692;DHT22;52411;52.716;6.696;2023-06-22T04:16:48;16.30;99.90
65692;DHT22;52411;52.716;6.696;2023-06-22T04:19:14;16.40;99.90
65692;DHT22;52411;52.716;6.696;2023-06-22T04:21:45;16.40;99.90
65692;DHT22;52411;52.716;6.696;2023-06-22T04:24:11;16.50;99.90
65692;DHT22;52411;52.716;6.696;2023-06-22T04:26:37;16.50;99.90
65692;DHT22;52411;52.716;6.696;2023-06-22T04:29:04;16.50;99.90
65692;DHT22;52411;52.716;6.696;2023-06-22T04:31:33;16.50;99.90
65692;DHT22;52411;52.716;6.696;2023-06-22T04:34:03;16.60;99.90
65692;DHT22;52411;52.716;6.696;2023-06-22T04:36:34;16.50;99.90
65692;DHT22;52411;52.716;6.696;2023-06-22T04:39:04;16.60;99.90
65692;DHT22;52411;52.716;6.696;2023-06-22T04:41:30;16.60;99.90
65692;DHT22;52411;52.716;6.696;2023-06-22T04:44:08;16.70;99.90
65692;DHT22;52411;52.716;6.696;2023-06-22T04:46:33;16.70;99.90
65692;DHT22;52411;52.716;6.696;2023-06-22T04:49:09;16.80;99.90
65692;DHT22;52411;52.716;6.696;2023-06-22T04:51:41;16.80;99.90
65692;DHT22;52411;52.716;6.696;2023-06-22T04:54:08;16.90;99.90
65692;DHT22;52411;52.716;6.696;2023-06-22T04:56:34;17.00;99.90
65692;DHT22;52411;52.716;6.696;2023-06-22T04:59:00;17.10;99.90
65692;DHT22;52411;52.716;6.696;2023-06-22T05:01:26;17.20;99.90
65692;DHT22;52411;52.716;6.696;2023-06-22T05:03:52;17.30;99.90
65692;DHT22;52411;52.716;6.696;2023-06-22T05:06:26;17.40;99.90
65692;DHT22;52411;52.716;6.696;2023-06-22T05:08:54;17.50;99.90
65692;DHT22;52411;52.716;6.696;2023-06-22T05:11:27;17.60;99.90
65692;DHT22;52411;52.716;6.696;2023-06-22T05:13:52;17.60;99.90
65692;DHT22;52411;52.716;6.696;2023-06-22T05:16:19;17.70;99.90
65692;DHT22;52411;52.716;6.696;2023-06-22T05:18:52;17.80;99.90
65692;DHT22;52411;52.716;6.696;2023-06-22T05:21:22;17.80;99.90
65692;DHT22;52411;52.716;6.696;2023-06-22T05:23:48;17.90;99.90
65692;DHT22;52411;52.716;6.696;2023-06-22T05:26:13;17.90;99.90
65692;DHT22;52411;52.716;6.696;2023-06-22T05:28:39;18.00;99.90
65692;DHT22;52411;52.716;6.696;2023-06-22T05:31:05;18.10;99.90
65692;DHT22;52411;52.716;6.696;2023-06-22T05:33:30;18.20;99.90
65692;DHT22;52411;52.716;6.696;2023-06-22T05:35:56;18.30;99.90
65692;DHT22;52411;52.716;6.696;2023-06-22T05:38:21;18.30;99.90
65692;DHT22;52411;52.716;6.696;2023-06-22T05:40:47;18.30;99.90
65692;DHT22;52411;52.716;6.696;2023-06-22T05:43:13;18.40;99.90
65692;DHT22;52411;52.716;6.696;2023-06-22T05:45:38;18.50;99.90
65692;DHT22;52411;52.716;6.696;2023-06-22T05:48:04;18.50;99.90
65692;DHT22;52411;52.716;6.696;2023-06-22T05:50:30;18.60;99.90
65692;DHT22;52411;52.716;6.696;2023-06-22T05:52:56;18.60;99.90
65692;DHT22;52411;52.716;6.696;2023-06-22T05:55:21;18.60;99.90
65692;DHT22;52411;52.716;6.696;2023-06-22T05:57:47;18.70;99.90
65692;DHT22;52411;52.716;6.696;2023-06-22T06:00:13;18.80;99.90
65692;DHT22;52411;52.716;6.696;2023-06-22T06:02:40;18.90;99.90
65692;DHT22;52411;52.716;6.696;2023-06-22T06:05:10;19.00;99.90
65692;DHT22;52411;52.716;6.696;2023-06-22T06:07:36;19.10;99.90
65692;DHT22;52411;52.716;6.696;2023-06-22T06:10:03;19.10;99.90
65692;DHT22;52411;52.716;6.696;2023-06-22T06:12:30;19.10;99.90
65692;DHT22;52411;52.716;6.696;2023-06-22T06:14:55;19.20;99.90
65692;DHT22;52411;52.716;6.696;2023-06-22T06:17:22;19.30;99.90
65692;DHT22;52411;52.716;6.696;2023-06-22T06:19:47;19.40;99.90
65692;DHT22;52411;52.716;6.696;2023-06-22T06:22:13;19.50;99.90
65692;DHT22;52411;52.716;6.696;2023-06-22T06:24:38;19.60;99.90
65692;DHT22;52411;52.716;6.696;2023-06-22T06:27:04;19.70;99.90
65692;DHT22;52411;52.716;6.696;2023-06-22T06:29:31;19.90;99.90
65692;DHT22;52411;52.716;6.696;2023-06-22T06:31:56;19.90;99.90
65692;DHT22;52411;52.716;6.696;2023-06-22T06:34:22;20.00;99.90
65692;DHT22;52411;52.716;6.696;2023-06-22T06:36:48;20.10;99.90
65692;DHT22;52411;52.716;6.696;2023-06-22T06:39:13;20.10;99.90
65692;DHT22;52411;52.716;6.696;2023-06-22T06:41:39;20.10;99.90
65692;DHT22;52411;52.716;6.696;2023-06-22T06:44:05;20.20;99.90
65692;DHT22;52411;52.716;6.696;2023-06-22T06:46:30;20.20;99.90
65692;DHT22;52411;52.716;6.696;2023-06-22T06:48:56;20.30;99.90
65692;DHT22;52411;52.716;6.696;2023-06-22T06:51:21;20.30;99.90
65692;DHT22;52411;52.716;6.696;2023-06-22T06:53:47;20.40;99.90
65692;DHT22;52411;52.716;6.696;2023-06-22T06:56:12;20.60;99.90
65692;DHT22;52411;52.716;6.696;2023-06-22T06:58:41;20.70;99.90
65692;DHT22;52411;52.716;6.696;2023-06-22T07:01:08;20.90;99.90
65692;DHT22;52411;52.716;6.696;2023-06-22T07:03:34;21.00;99.90
65692;DHT22;52411;52.716;6.696;2023-06-22T07:06:00;21.10;99.90
65692;DHT22;52411;52.716;6.696;2023-06-22T07:08:25;21.10;99.90
65692;DHT22;52411;52.716;6.696;2023-06-22T07:10:52;21.20;99.90
65692;DHT22;52411;52.716;6.696;2023-06-22T07:13:18;21.10;99.90
65692;DHT22;52411;52.716;6.696;2023-06-22T07:15:43;21.10;99.90
65692;DHT22;52411;52.716;6.696;2023-06-22T07:18:09;21.20;99.90
65692;DHT22;52411;52.716;6.696;2023-06-22T07:20:35;21.30;99.90
65692;DHT22;52411;52.716;6.696;2023-06-22T07:23:00;21.30;99.90
65692;DHT22;52411;52.716;6.696;2023-06-22T07:25:26;21.40;99.90
65692;DHT22;52411;52.716;6.696;2023-06-22T07:28:03;21.50;99.90
65692;DHT22;52411;52.716;6.696;2023-06-22T07:30:29;21.60;99.90
65692;DHT22;52411;52.716;6.696;2023-06-22T07:32:56;21.70;99.90
65692;DHT22;52411;52.716;6.696;2023-06-22T07:35:21;21.70;99.90
65692;DHT22;52411;52.716;6.696;2023-06-22T07:37:47;21.60;99.90
65692;DHT22;52411;52.716;6.696;2023-06-22T07:40:13;21.50;99.90
65692;DHT22;52411;52.716;6.696;2023-06-22T07:42:38;21.60;99.90
65692;DHT22;52411;52.716;6.696;2023-06-22T07:45:04;21.60;99.90
65692;DHT22;52411;52.716;6.696;2023-06-22T07:47:31;21.60;99.90
65692;DHT22;52411;52.716;6.696;2023-06-22T07:50:00;21.70;99.90
65692;DHT22;52411;52.716;6.696;2023-06-22T07:52:27;21.80;99.90
65692;DHT22;52411;52.716;6.696;2023-06-22T07:54:53;21.90;99.90
65692;DHT22;52411;52.716;6.696;2023-06-22T07:57:20;22.00;99.90
65692;DHT22;52411;52.716;6.696;2023-06-22T07:59:45;22.10;99.90
65692;DHT22;52411;52.716;6.696;2023-06-22T08:02:11;22.10;99.90
65692;DHT22;52411;52.716;6.696;2023-06-22T08:04:37;22.20;99.90
65692;DHT22;52411;52.716;6.696;2023-06-22T08:07:03;22.30;99.90
65692;DHT22;52411;52.716;6.696;2023-06-22T08:09:31;22.30;99.90
65692;DHT22;52411;52.716;6.696;2023-06-22T08:11:57;22.40;99.90
65692;DHT22;52411;52.716;6.696;2023-06-22T08:14:26;22.40;99.90
65692;DHT22;52411;52.716;6.696;2023-06-22T08:16:52;22.50;99.90
65692;DHT22;52411;52.716;6.696;2023-06-22T08:19:18;22.60;99.90
65692;DHT22;52411;52.716;6.696;2023-06-22T08:21:44;22.70;99.90
65692;DHT22;52411;52.716;6.696;2023-06-22T08:24:09;22.70;99.90
65692;DHT22;52411;52.716;6.696;2023-06-22T08:26:35;22.80;99.90
65692;DHT22;52411;52.716;6.696;2023-06-22T08:29:03;22.80;99.90
65692;DHT22;52411;52.716;6.696;2023-06-22T08:31:30;22.90;99.90
65692;DHT22;52411;52.716;6.696;2023-06-22T08:33:55;23.10;99.90
65692;DHT22;52411;52.716;6.696;2023-06-22T08:36:21;23.20;99.90
65692;DHT22;52411;52.716;6.696;2023-06-22T08:38:47;23.30;99.90
65692;DHT22;52411;52.716;6.696;2023-06-22T08:41:17;23.40;99.90
65692;DHT22;52411;52.716;6.696;2023-06-22T08:43:43;23.40;99.90
65692;DHT22;52411;52.716;6.696;2023-06-22T08:46:10;23.40;99.90
65692;DHT22;52411;52.716;6.696;2023-06-22T08:48:36;23.50;99.90
65692;DHT22;52411;52.716;6.696;2023-06-22T08:51:02;23.50;99.90
65692;DHT22;52411;52.716;6.696;2023-06-22T08:53:28;23.60;99.90
65692;DHT22;52411;52.716;6.696;2023-06-22T08:55:54;23.70;99.90
65692;DHT22;52411;52.716;6.696;2023-06-22T08:58:20;23.90;99.90
65692;DHT22;52411;52.716;6.696;2023-06-22T09:00:47;23.90;99.90
65692;DHT22;52411;52.716;6.696;2023-06-22T09:03:13;23.90;99.90
65692;DHT22;52411;52.716;6.696;2023-06-22T09:05:38;24.00;99.90
65692;DHT22;52411;52.716;6.696;2023-06-22T09:08:04;24.10;99.90
65692;DHT22;52411;52.716;6.696;2023-06-22T09:10:30;24.00;99.90
65692;DHT22;52411;52.716;6.696;2023-06-22T09:12:57;24.10;99.90
65692;DHT22;52411;52.716;6.696;2023-06-22T09:15:22;24.20;99.90
65692;DHT22;52411;52.716;6.696;2023-06-22T09:17:48;24.30;99.90
65692;DHT22;52411;52.716;6.696;2023-06-22T09:20:14;24.40;99.90
65692;DHT22;52411;52.716;6.696;2023-06-22T09:22:40;24.50;99.90
65692;DHT22;52411;52.716;6.696;2023-06-22T09:25:05;24.60;99.90
65692;DHT22;52411;52.716;6.696;2023-06-22T09:27:31;24.70;99.90
65692;DHT22;52411;52.716;6.696;2023-06-22T09:29:57;24.80;99.90
65692;DHT22;52411;52.716;6.696;2023-06-22T09:32:24;24.90;99.90
65692;DHT22;52411;52.716;6.696;2023-06-22T09:34:51;25.00;99.90
65692;DHT22;52411;52.716;6.696;2023-06-22T09:37:16;25.10;99.90
65692;DHT22;52411;52.716;6.696;2023-06-22T09:39:42;25.20;99.90
65692;DHT22;52411;52.716;6.696;2023-06-22T09:42:08;25.00;99.90
65692;DHT22;52411;52.716;6.696;2023-06-22T09:44:33;25.00;99.90
65692;DHT22;52411;52.716;6.696;2023-06-22T09:47:00;25.00;99.90
65692;DHT22;52411;52.716;6.696;2023-06-22T09:49:25;25.10;99.90
65692;DHT22;52411;52.716;6.696;2023-06-22T09:51:51;25.00;99.90
65692;DHT22;52411;52.716;6.696;2023-06-22T09:54:18;25.10;99.90
65692;DHT22;52411;52.716;6.696;2023-06-22T09:56:43;25.20;99.90
65692;DHT22;52411;52.716;6.696;2023-06-22T09:59:09;25.30;99.90
65692;DHT22;52411;52.716;6.696;2023-06-22T10:01:35;25.60;99.90
65692;DHT22;52411;52.716;6.696;2023-06-22T10:04:02;25.80;99.90
65692;DHT22;52411;52.716;6.696;2023-06-22T10:06:27;25.90;99.90
65692;DHT22;52411;52.716;6.696;2023-06-22T10:08:53;26.10;99.90
65692;DHT22;52411;52.716;6.696;2023-06-22T10:11:19;26.10;99.90
65692;DHT22;52411;52.716;6.696;2023-06-22T10:13:44;26.20;99.90
65692;DHT22;52411;52.716;6.696;2023-06-22T10:16:10;26.10;99.90
65692;DHT22;52411;52.716;6.696;2023-06-22T10:18:36;26.30;99.90
65692;DHT22;52411;52.716;6.696;2023-06-22T10:23:37;26.40;99.10
65692;DHT22;52411;52.716;6.696;2023-06-22T10:26:02;26.60;99.60
65692;DHT22;52411;52.716;6.696;2023-06-22T10:30:56;26.60;99.70
65692;DHT22;52411;52.716;6.696;2023-06-22T10:33:21;26.70;99.60
65692;DHT22;52411;52.716;6.696;2023-06-22T10:35:47;26.80;98.30
65692;DHT22;52411;52.716;6.696;2023-06-22T10:38:12;27.00;98.80
65692;DHT22;52411;52.716;6.696;2023-06-22T10:40:38;27.00;98.80
65692;DHT22;52411;52.716;6.696;2023-06-22T10:43:05;27.00;99.30
65692;DHT22;52411;52.716;6.696;2023-06-22T10:54:23;27.40;98.70
65692;DHT22;52411;52.716;6.696;2023-06-22T10:56:48;27.50;98.40
65692;DHT22;52411;52.716;6.696;2023-06-22T10:59:14;27.60;99.10
65692;DHT22;52411;52.716;6.696;2023-06-22T11:20:23;27.60;91.80
65692;DHT22;52411;52.716;6.696;2023-06-22T11:25:24;27.50;96.30
65692;DHT22;52411;52.716;6.696;2023-06-22T11:27:50;27.40;95.70
65692;DHT22;52411;52.716;6.696;2023-06-22T11:38:02;27.20;94.60
65692;DHT22;52411;52.716;6.696;2023-06-22T11:40:29;27.20;95.40
65692;DHT22;52411;52.716;6.696;2023-06-22T12:01:46;27.20;95.90
65692;DHT22;52411;52.716;6.696;2023-06-22T12:04:11;27.30;96.00
65692;DHT22;52411;52.716;6.696;2023-06-22T12:06:38;27.40;95.70
65692;DHT22;52411;52.716;6.696;2023-06-22T12:09:06;27.40;95.70
65692;DHT22;52411;52.716;6.696;2023-06-22T12:11:32;27.60;95.30
65692;DHT22;52411;52.716;6.696;2023-06-22T12:13:57;27.60;94.10
65692;DHT22;52411;52.716;6.696;2023-06-22T12:16:27;27.70;94.70
65692;DHT22;52411;52.716;6.696;2023-06-22T12:18:53;27.70;94.00
65692;DHT22;52411;52.716;6.696;2023-06-22T12:21:19;27.70;94.20
65692;DHT22;52411;52.716;6.696;2023-06-22T12:23:44;27.80;94.20
65692;DHT22;52411;52.716;6.696;2023-06-22T12:26:10;27.70;94.20
65692;DHT22;52411;52.716;6.696;2023-06-22T12:28:36;27.70;94.00
65692;DHT22;52411;52.716;6.696;2023-06-22T12:31:01;27.70;94.10
65692;DHT22;52411;52.716;6.696;2023-06-22T12:33:27;27.60;93.20
65692;DHT22;52411;52.716;6.696;2023-06-22T12:35:52;27.70;93.50
65692;DHT22;52411;52.716;6.696;2023-06-22T12:38:18;27.50;93.70
65692;DHT22;52411;52.716;6.696;2023-06-22T12:40:43;27.40;93.30
65692;DHT22;52411;52.716;6.696;2023-06-22T12:43:09;27.20;94.10
65692;DHT22;52411;52.716;6.696;2023-06-22T12:45:35;27.10;94.50
65692;DHT22;52411;52.716;6.696;2023-06-22T12:48:00;27.10;94.20
65692;DHT22;52411;52.716;6.696;2023-06-22T12:50:26;26.90;93.40
65692;DHT22;52411;52.716;6.696;2023-06-22T12:52:52;26.80;94.10
65692;DHT22;52411;52.716;6.696;2023-06-22T12:55:18;26.80;94.30
65692;DHT22;52411;52.716;6.696;2023-06-22T12:57:43;26.60;94.50
65692;DHT22;52411;52.716;6.696;2023-06-22T13:00:09;26.60;94.90
65692;DHT22;52411;52.716;6.696;2023-06-22T13:02:36;26.50;94.90
65692;DHT22;52411;52.716;6.696;2023-06-22T13:05:02;26.30;94.60
65692;DHT22;52411;52.716;6.696;2023-06-22T13:07:30;26.20;94.60
65692;DHT22;52411;52.716;6.696;2023-06-22T13:09:56;26.30;94.90
65692;DHT22;52411;52.716;6.696;2023-06-22T13:12:21;26.30;94.60
65692;DHT22;52411;52.716;6.696;2023-06-22T13:14:48;26.30;94.30
65692;DHT22;52411;52.716;6.696;2023-06-22T13:17:14;26.30;94.40
65692;DHT22;52411;52.716;6.696;2023-06-22T13:19:40;26.30;94.00
65692;DHT22;52411;52.716;6.696;2023-06-22T13:22:26;26.20;94.10
65692;DHT22;52411;52.716;6.696;2023-06-22T13:24:52;26.20;94.20
65692;DHT22;52411;52.716;6.696;2023-06-22T13:27:18;26.10;94.80
65692;DHT22;52411;52.716;6.696;2023-06-22T13:29:44;26.00;95.00
65692;DHT22;52411;52.716;6.696;2023-06-22T13:32:09;26.00;94.90
65692;DHT22;52411;52.716;6.696;2023-06-22T13:34:35;26.00;95.00
65692;DHT22;52411;52.716;6.696;2023-06-22T13:37:00;26.00;95.00
65692;DHT22;52411;52.716;6.696;2023-06-22T13:39:26;25.90;95.10
65692;DHT22;52411;52.716;6.696;2023-06-22T13:41:51;25.80;95.10
65692;DHT22;52411;52.716;6.696;2023-06-22T13:44:17;25.70;94.80
65692;DHT22;52411;52.716;6.696;2023-06-22T13:46:43;25.70;95.10
65692;DHT22;52411;52.716;6.696;2023-06-22T13:49:08;25.70;95.40
65692;DHT22;52411;52.716;6.696;2023-06-22T13:51:34;25.60;95.60
65692;DHT22;52411;52.716;6.696;2023-06-22T13:54:00;25.60;96.10
65692;DHT22;52411;52.716;6.696;2023-06-22T13:56:26;25.50;96.30
65692;DHT22;52411;52.716;6.696;2023-06-22T13:58:51;25.50;96.60
65692;DHT22;52411;52.716;6.696;2023-06-22T14:01:17;25.50;96.90
65692;DHT22;52411;52.716;6.696;2023-06-22T14:03:42;25.50;97.00
65692;DHT22;52411;52.716;6.696;2023-06-22T14:06:10;25.40;97.10
65692;DHT22;52411;52.716;6.696;2023-06-22T14:08:37;25.30;97.20
65692;DHT22;52411;52.716;6.696;2023-06-22T14:11:03;25.30;97.40
65692;DHT22;52411;52.716;6.696;2023-06-22T14:13:28;25.20;97.30
65692;DHT22;52411;52.716;6.696;2023-06-22T14:15:54;25.20;97.70
65692;DHT22;52411;52.716;6.696;2023-06-22T14:18:20;25.20;98.30
65692;DHT22;52411;52.716;6.696;2023-06-22T14:20:48;25.00;98.70
65692;DHT22;52411;52.716;6.696;2023-06-22T14:23:13;25.10;99.10
65692;DHT22;52411;52.716;6.696;2023-06-22T14:25:40;25.00;99.80
65692;DHT22;52411;52.716;6.696;2023-06-22T14:28:06;25.10;99.90
65692;DHT22;52411;52.716;6.696;2023-06-22T14:30:31;25.00;99.90
65692;DHT22;52411;52.716;6.696;2023-06-22T14:32:57;25.10;99.90
65692;DHT22;52411;52.716;6.696;2023-06-22T14:35:22;25.10;99.90
65692;DHT22;52411;52.716;6.696;2023-06-22T14:37:49;25.10;99.90
65692;DHT22;52411;52.716;6.696;2023-06-22T14:40:15;25.10;99.90
65692;DHT22;52411;52.716;6.696;2023-06-22T14:42:41;25.20;99.90
65692;DHT22;52411;52.716;6.696;2023-06-22T14:45:07;25.10;99.90
65692;DHT22;52411;52.716;6.696;2023-06-22T14:47:32;25.00;99.90
65692;DHT22;52411;52.716;6.696;2023-06-22T14:49:58;24.80;99.90
65692;DHT22;52411;52.716;6.696;2023-06-22T14:52:25;24.60;99.90
65692;DHT22;52411;52.716;6.696;2023-06-22T14:54:51;24.50;99.90
65692;DHT22;52411;52.716;6.696;2023-06-22T14:57:18;24.40;99.90
65692;DHT22;52411;52.716;6.696;2023-06-22T14:59:46;24.30;99.90
65692;DHT22;52411;52.716;6.696;2023-06-22T15:02:12;24.20;99.90
65692;DHT22;52411;52.716;6.696;2023-06-22T15:04:38;24.10;99.90
65692;DHT22;52411;52.716;6.696;2023-06-22T15:07:04;23.90;99.90
65692;DHT22;52411;52.716;6.696;2023-06-22T15:09:30;23.90;99.90
65692;DHT22;52411;52.716;6.696;2023-06-22T15:11:55;23.80;99.90
65692;DHT22;52411;52.716;6.696;2023-06-22T15:14:21;23.70;99.90
65692;DHT22;52411;52.716;6.696;2023-06-22T15:16:46;23.60;99.90
65692;DHT22;52411;52.716;6.696;2023-06-22T15:19:12;23.50;99.90
65692;DHT22;52411;52.716;6.696;2023-06-22T15:21:38;23.40;99.90
65692;DHT22;52411;52.716;6.696;2023-06-22T15:24:04;23.20;99.90
65692;DHT22;52411;52.716;6.696;2023-06-22T15:26:30;23.10;99.90
65692;DHT22;52411;52.716;6.696;2023-06-22T15:28:55;23.00;99.90
65692;DHT22;52411;52.716;6.696;2023-06-22T15:31:21;22.90;99.90
65692;DHT22;52411;52.716;6.696;2023-06-22T15:33:47;22.80;99.90
65692;DHT22;52411;52.716;6.696;2023-06-22T15:36:13;22.70;99.90
65692;DHT22;52411;52.716;6.696;2023-06-22T15:38:38;22.60;99.90
65692;DHT22;52411;52.716;6.696;2023-06-22T15:41:04;22.50;99.90
65692;DHT22;52411;52.716;6.696;2023-06-22T15:43:29;22.50;99.90
65692;DHT22;52411;52.716;6.696;2023-06-22T15:45:55;22.50;99.90
65692;DHT22;52411;52.716;6.696;2023-06-22T15:48:21;22.40;99.90
65692;DHT22;52411;52.716;6.696;2023-06-22T15:50:47;22.30;99.90
65692;DHT22;52411;52.716;6.696;2023-06-22T15:53:13;22.30;99.90
65692;DHT22;52411;52.716;6.696;2023-06-22T15:55:39;22.20;99.90
65692;DHT22;52411;52.716;6.696;2023-06-22T15:58:04;22.10;99.90
65692;DHT22;52411;52.716;6.696;2023-06-22T16:00:30;22.10;99.90
65692;DHT22;52411;52.716;6.696;2023-06-22T16:02:56;22.00;99.90
65692;DHT22;52411;52.716;6.696;2023-06-22T16:05:21;22.00;99.90
65692;DHT22;52411;52.716;6.696;2023-06-22T16:07:47;21.90;99.90
65692;DHT22;52411;52.716;6.696;2023-06-22T16:10:13;21.90;99.90
65692;DHT22;52411;52.716;6.696;2023-06-22T16:12:42;21.80;99.90
65692;DHT22;52411;52.716;6.696;2023-06-22T16:15:09;21.80;99.90
65692;DHT22;52411;52.716;6.696;2023-06-22T16:17:35;21.70;99.90
65692;DHT22;52411;52.716;6.696;2023-06-22T16:20:04;21.70;99.90
65692;DHT22;52411;52.716;6.696;2023-06-22T16:22:31;21.60;99.90
65692;DHT22;52411;52.716;6.696;2023-06-22T16:24:57;21.60;99.90
65692;DHT22;52411;52.716;6.696;2023-06-22T16:27:23;21.50;99.90
65692;DHT22;52411;52.716;6.696;2023-06-22T16:29:50;21.40;99.90
65692;DHT22;52411;52.716;6.696;2023-06-22T16:32:16;21.20;99.90